Date,TemperatureHighF,TemperatureAvgF,TemperatureLowF,DewpointHighF,DewpointAvgF,DewpointLowF,HumidityHigh,HumidityAvg,HumidityLow,PressureMaxIn,PressureMinIn,WindSpeedMaxMPH,WindSpeedAvgMPH,GustSpeedMaxMPH,PrecipitationSumIn
2013-4-1,48,41,30,40,6,-100,92,45,28,0.00,40.00,14,4,25,2.24
2013-4-2,45,34,22,23,15,10,78,47,27,0.00,40.00,10,3,21,2.79
2013-4-3,46,33,20,21,15,9,89,54,23,0.00,40.00,9,1,17,2.24
2013-4-4,55,39,26,28,17,11,71,44,18,0.00,40.00,6,1,10,0.00
2013-4-5,62,44,24,30,24,19,90,52,21,0.00,40.00,10,2,18,5.04
2013-4-6,64,46,26,28,18,7,86,41,13,0.00,40.00,8,1,17,6.18
2013-4-7,74,62,47,55,32,-100,89,41,30,0.00,40.00,18,5,28,3.34
2013-4-8,76,63,47,50,-12,-100,73,26,31,0.00,40.00,21,4,32,1.10
2013-4-9,83,67,47,54,24,-100,96,44,30,0.00,40.00,14,4,23,0.00
2013-4-10,84,73,59,58,55,53,83,56,35,0.00,40.00,16,6,27,0.00
2013-4-11,80,66,54,61,37,-100,97,60,40,0.00,40.00,13,2,31,0.55
2013-4-12,60,52,44,57,-14,-100,97,41,51,0.00,40.00,16,6,24,8.42
2013-4-13,58,46,33,37,17,-100,94,51,34,0.00,40.00,15,4,29,0.00
2013-4-14,69,50,31,45,5,-100,97,41,26,0.00,40.00,9,2,15,0.00
2013-4-15,71,61,49,51,47,42,82,61,47,0.00,40.00,10,2,19,0.00
2013-4-16,84,66,56,60,28,-100,86,52,34,0.00,40.00,20,4,29,0.55
2013-4-17,71,61,56,61,-35,-100,95,32,68,0.00,40.00,8,2,13,2.79
2013-4-18,86,70,53,59,-3,-100,96,28,30,0.00,40.00,16,4,29,0.00
2013-4-19,75,56,42,62,32,-100,96,56,38,0.00,40.00,17,7,30,2.24
2013-4-20,51,42,34,30,27,22,81,55,34,0.00,40.00,14,6,25,0.00
2013-4-21,58,42,27,32,-4,-100,97,36,19,0.00,40.00,7,1,15,0.00
2013-4-22,71,50,32,42,33,29,95,58,22,0.00,40.00,7,1,14,0.00
2013-4-23,73,57,38,49,20,-100,97,43,24,0.00,40.00,11,2,18,0.00
2013-4-24,63,53,35,58,26,-100,97,64,50,0.00,40.00,16,4,27,11.18
2013-4-25,58,46,31,37,-18,-100,97,29,31,0.00,40.00,15,3,24,1.65
2013-4-26,64,48,30,41,12,-100,97,44,21,0.00,40.00,6,1,10,0.00
2013-4-27,73,55,35,47,13,-100,96,40,18,0.00,40.00,8,2,15,0.00
2013-4-28,67,59,53,58,-5,-100,97,47,59,0.00,40.00,6,1,14,7.78
2013-4-29,64,59,52,59,-39,-100,96,32,70,0.00,40.00,4,1,7,0.55
2013-4-30,79,62,46,57,-15,-100,97,30,33,0.00,40.00,7,1,11,3.85